Weather at Boyne Mountain Airport

Public forecast

Using degrees Fahrenheit for public forecast. Weather courtesy of forecast.io.

Closest aviation weather report (METAR) to Boyne Mountain Airport

Closest report is Gaylord Regional Airport, 13.1 nm (24.2 km) SE. Retrieved 2021/10/23 03:53 UTC (38 minutes ago):

KGLR 230353Z AUTO 00000KT 10SM BKN075 01/M02 A2998 RMK AO2 SLP163 T00111022

Closest aviation forecast (TAF) to Boyne Mountain Airport

Closest forecast is Pellston Regional Airport of Emmet County Airport, 24.9 nm (46.1 km) NNE. Retrieved 2021-10-23 00:22 UTC (4 hours ago):

TAF KPLN 222320Z 2300/2324 VRB03KT P6SM VCSH SCT025 BKN035 FM231500 30005KT P6SM VCSH BKN035